sensor_id;sensor_type;location;lat;lon;timestamp;P1;durP1;ratioP1;P2;durP2;ratioP2
22995;SDS011;11664;49.774;8.650;2022-11-20T00:00:56;14.32;;;10.95;;
22995;SDS011;11664;49.774;8.650;2022-11-20T00:03:22;13.25;;;9.45;;
22995;SDS011;11664;49.774;8.650;2022-11-20T00:05:48;17.52;;;10.82;;
22995;SDS011;11664;49.774;8.650;2022-11-20T00:08:13;10.93;;;8.75;;
22995;SDS011;11664;49.774;8.650;2022-11-20T00:10:39;13.80;;;7.82;;
22995;SDS011;11664;49.774;8.650;2022-11-20T00:13:06;12.85;;;11.52;;
22995;SDS011;11664;49.774;8.650;2022-11-20T00:15:32;13.82;;;12.35;;
22995;SDS011;11664;49.774;8.650;2022-11-20T00:17:58;11.43;;;8.40;;
22995;SDS011;11664;49.774;8.650;2022-11-20T00:20:23;9.15;;;7.47;;
22995;SDS011;11664;49.774;8.650;2022-11-20T00:22:49;9.77;;;8.23;;
22995;SDS011;11664;49.774;8.650;2022-11-20T00:25:15;13.68;;;9.00;;
22995;SDS011;11664;49.774;8.650;2022-11-20T00:27:41;8.50;;;7.15;;
22995;SDS011;11664;49.774;8.650;2022-11-20T00:30:07;9.50;;;8.50;;
22995;SDS011;11664;49.774;8.650;2022-11-20T00:32:32;9.70;;;8.77;;
22995;SDS011;11664;49.774;8.650;2022-11-20T00:34:58;9.45;;;8.18;;
22995;SDS011;11664;49.774;8.650;2022-11-20T00:37:24;12.88;;;7.63;;
22995;SDS011;11664;49.774;8.650;2022-11-20T00:39:49;10.85;;;8.13;;
22995;SDS011;11664;49.774;8.650;2022-11-20T00:42:15;11.15;;;8.35;;
22995;SDS011;11664;49.774;8.650;2022-11-20T00:44:40;37.13;;;34.50;;
22995;SDS011;11664;49.774;8.650;2022-11-20T00:47:06;27.60;;;25.40;;
22995;SDS011;11664;49.774;8.650;2022-11-20T00:49:31;14.82;;;13.38;;
22995;SDS011;11664;49.774;8.650;2022-11-20T00:51:57;18.30;;;16.38;;
22995;SDS011;11664;49.774;8.650;2022-11-20T00:54:22;11.48;;;10.25;;
22995;SDS011;11664;49.774;8.650;2022-11-20T00:56:48;11.77;;;8.63;;
22995;SDS011;11664;49.774;8.650;2022-11-20T00:59:13;11.45;;;8.57;;
22995;SDS011;11664;49.774;8.650;2022-11-20T01:01:39;8.77;;;7.22;;
22995;SDS011;11664;49.774;8.650;2022-11-20T01:04:05;11.43;;;7.85;;
22995;SDS011;11664;49.774;8.650;2022-11-20T01:06:35;9.60;;;7.95;;
22995;SDS011;11664;49.774;8.650;2022-11-20T01:09:03;9.30;;;8.23;;
22995;SDS011;11664;49.774;8.650;2022-11-20T01:11:32;9.02;;;7.65;;
22995;SDS011;11664;49.774;8.650;2022-11-20T01:13:59;10.32;;;8.10;;
22995;SDS011;11664;49.774;8.650;2022-11-20T01:16:30;12.32;;;8.45;;
22995;SDS011;11664;49.774;8.650;2022-11-20T01:18:59;7.65;;;6.85;;
22995;SDS011;11664;49.774;8.650;2022-11-20T01:21:35;10.32;;;8.77;;
22995;SDS011;11664;49.774;8.650;2022-11-20T01:24:03;9.90;;;8.48;;
22995;SDS011;11664;49.774;8.650;2022-11-20T01:26:31;14.25;;;9.35;;
22995;SDS011;11664;49.774;8.650;2022-11-20T01:28:59;8.45;;;7.55;;
22995;SDS011;11664;49.774;8.650;2022-11-20T01:31:31;9.98;;;7.18;;
22995;SDS011;11664;49.774;8.650;2022-11-20T01:34:02;10.13;;;6.82;;
22995;SDS011;11664;49.774;8.650;2022-11-20T01:36:29;8.23;;;6.65;;
22995;SDS011;11664;49.774;8.650;2022-11-20T01:38:58;9.80;;;7.13;;
22995;SDS011;11664;49.774;8.650;2022-11-20T01:41:26;11.70;;;7.55;;
22995;SDS011;11664;49.774;8.650;2022-11-20T01:44:12;9.15;;;6.82;;
22995;SDS011;11664;49.774;8.650;2022-11-20T01:46:40;11.65;;;7.10;;
22995;SDS011;11664;49.774;8.650;2022-11-20T01:49:23;9.52;;;6.68;;
22995;SDS011;11664;49.774;8.650;2022-11-20T01:51:55;10.43;;;6.50;;
22995;SDS011;11664;49.774;8.650;2022-11-20T01:54:29;12.00;;;7.00;;
22995;SDS011;11664;49.774;8.650;2022-11-20T01:57:01;11.38;;;7.07;;
22995;SDS011;11664;49.774;8.650;2022-11-20T01:59:29;11.77;;;7.85;;
22995;SDS011;11664;49.774;8.650;2022-11-20T02:01:55;10.75;;;7.78;;
22995;SDS011;11664;49.774;8.650;2022-11-20T02:04:21;15.27;;;8.35;;
22995;SDS011;11664;49.774;8.650;2022-11-20T02:06:57;11.60;;;8.25;;
22995;SDS011;11664;49.774;8.650;2022-11-20T02:09:28;8.82;;;7.07;;
22995;SDS011;11664;49.774;8.650;2022-11-20T02:11:54;11.90;;;7.00;;
22995;SDS011;11664;49.774;8.650;2022-11-20T02:14:21;11.68;;;8.63;;
22995;SDS011;11664;49.774;8.650;2022-11-20T02:16:48;9.35;;;8.10;;
22995;SDS011;11664;49.774;8.650;2022-11-20T02:21:55;9.32;;;6.28;;
22995;SDS011;11664;49.774;8.650;2022-11-20T02:24:35;12.88;;;6.07;;
22995;SDS011;11664;49.774;8.650;2022-11-20T02:27:02;8.95;;;6.57;;
22995;SDS011;11664;49.774;8.650;2022-11-20T02:29:36;9.63;;;6.75;;
22995;SDS011;11664;49.774;8.650;2022-11-20T02:32:21;11.20;;;6.60;;
22995;SDS011;11664;49.774;8.650;2022-11-20T02:34:52;13.00;;;7.95;;
22995;SDS011;11664;49.774;8.650;2022-11-20T02:37:18;8.15;;;5.90;;
22995;SDS011;11664;49.774;8.650;2022-11-20T02:39:45;10.88;;;8.25;;
22995;SDS011;11664;49.774;8.650;2022-11-20T02:42:12;9.13;;;6.07;;
22995;SDS011;11664;49.774;8.650;2022-11-20T02:44:38;11.15;;;7.53;;
22995;SDS011;11664;49.774;8.650;2022-11-20T02:47:03;12.52;;;7.68;;
22995;SDS011;11664;49.774;8.650;2022-11-20T02:49:29;7.20;;;6.40;;
22995;SDS011;11664;49.774;8.650;2022-11-20T02:51:54;10.45;;;6.65;;
22995;SDS011;11664;49.774;8.650;2022-11-20T02:54:20;12.68;;;7.70;;
22995;SDS011;11664;49.774;8.650;2022-11-20T02:56:45;12.25;;;7.03;;
22995;SDS011;11664;49.774;8.650;2022-11-20T02:59:11;13.45;;;7.28;;
22995;SDS011;11664;49.774;8.650;2022-11-20T03:01:36;14.88;;;8.85;;
22995;SDS011;11664;49.774;8.650;2022-11-20T03:04:02;9.95;;;6.78;;
22995;SDS011;11664;49.774;8.650;2022-11-20T03:06:28;11.75;;;7.25;;
22995;SDS011;11664;49.774;8.650;2022-11-20T03:08:53;14.48;;;8.60;;
22995;SDS011;11664;49.774;8.650;2022-11-20T03:11:19;15.85;;;9.32;;
22995;SDS011;11664;49.774;8.650;2022-11-20T03:13:45;14.45;;;8.52;;
22995;SDS011;11664;49.774;8.650;2022-11-20T03:16:11;13.70;;;9.73;;
22995;SDS011;11664;49.774;8.650;2022-11-20T03:18:39;15.65;;;8.35;;
22995;SDS011;11664;49.774;8.650;2022-11-20T03:21:06;13.65;;;9.15;;
22995;SDS011;11664;49.774;8.650;2022-11-20T03:23:33;17.45;;;10.88;;
22995;SDS011;11664;49.774;8.650;2022-11-20T03:26:13;19.15;;;8.55;;
22995;SDS011;11664;49.774;8.650;2022-11-20T03:28:41;15.38;;;9.05;;
22995;SDS011;11664;49.774;8.650;2022-11-20T03:31:13;18.67;;;9.98;;
22995;SDS011;11664;49.774;8.650;2022-11-20T03:33:41;17.17;;;9.90;;
22995;SDS011;11664;49.774;8.650;2022-11-20T03:36:08;24.05;;;10.30;;
22995;SDS011;11664;49.774;8.650;2022-11-20T03:38:36;22.55;;;11.75;;
22995;SDS011;11664;49.774;8.650;2022-11-20T03:43:56;20.05;;;9.57;;
22995;SDS011;11664;49.774;8.650;2022-11-20T03:46:23;20.40;;;11.23;;
22995;SDS011;11664;49.774;8.650;2022-11-20T03:48:49;20.25;;;10.05;;
22995;SDS011;11664;49.774;8.650;2022-11-20T03:53:45;19.35;;;10.73;;
22995;SDS011;11664;49.774;8.650;2022-11-20T03:56:12;21.38;;;11.23;;
22995;SDS011;11664;49.774;8.650;2022-11-20T03:58:39;21.25;;;10.02;;
22995;SDS011;11664;49.774;8.650;2022-11-20T04:01:09;20.27;;;10.82;;
22995;SDS011;11664;49.774;8.650;2022-11-20T04:03:40;27.67;;;13.00;;
22995;SDS011;11664;49.774;8.650;2022-11-20T04:06:20;23.30;;;13.07;;
22995;SDS011;11664;49.774;8.650;2022-11-20T04:08:47;23.65;;;14.32;;
22995;SDS011;11664;49.774;8.650;2022-11-20T04:11:18;19.77;;;10.68;;
22995;SDS011;11664;49.774;8.650;2022-11-20T04:13:47;23.83;;;11.68;;
22995;SDS011;11664;49.774;8.650;2022-11-20T04:16:14;20.58;;;11.25;;
22995;SDS011;11664;49.774;8.650;2022-11-20T04:18:39;19.48;;;10.70;;
22995;SDS011;11664;49.774;8.650;2022-11-20T04:21:05;17.27;;;11.07;;
22995;SDS011;11664;49.774;8.650;2022-11-20T04:23:31;24.40;;;13.10;;
22995;SDS011;11664;49.774;8.650;2022-11-20T04:26:00;25.10;;;11.85;;
22995;SDS011;11664;49.774;8.650;2022-11-20T04:28:30;26.30;;;10.73;;
22995;SDS011;11664;49.774;8.650;2022-11-20T04:31:01;16.92;;;9.50;;
22995;SDS011;11664;49.774;8.650;2022-11-20T04:33:46;29.80;;;10.48;;
22995;SDS011;11664;49.774;8.650;2022-11-20T04:36:13;19.73;;;9.93;;
22995;SDS011;11664;49.774;8.650;2022-11-20T04:38:41;18.27;;;9.98;;
22995;SDS011;11664;49.774;8.650;2022-11-20T04:41:07;24.65;;;10.75;;
22995;SDS011;11664;49.774;8.650;2022-11-20T04:43:36;24.45;;;10.77;;
22995;SDS011;11664;49.774;8.650;2022-11-20T04:46:01;16.88;;;9.98;;
22995;SDS011;11664;49.774;8.650;2022-11-20T04:48:28;20.55;;;9.50;;
22995;SDS011;11664;49.774;8.650;2022-11-20T04:50:54;20.67;;;9.13;;
22995;SDS011;11664;49.774;8.650;2022-11-20T04:53:20;22.98;;;10.65;;
22995;SDS011;11664;49.774;8.650;2022-11-20T04:55:46;24.13;;;11.77;;
22995;SDS011;11664;49.774;8.650;2022-11-20T04:58:12;19.77;;;10.52;;
22995;SDS011;11664;49.774;8.650;2022-11-20T05:00:38;22.05;;;10.48;;
22995;SDS011;11664;49.774;8.650;2022-11-20T05:03:03;19.67;;;9.50;;
22995;SDS011;11664;49.774;8.650;2022-11-20T05:05:29;19.92;;;10.05;;
22995;SDS011;11664;49.774;8.650;2022-11-20T05:07:55;22.45;;;10.23;;
22995;SDS011;11664;49.774;8.650;2022-11-20T05:10:22;19.40;;;9.35;;
22995;SDS011;11664;49.774;8.650;2022-11-20T05:12:48;24.20;;;11.82;;
22995;SDS011;11664;49.774;8.650;2022-11-20T05:15:13;20.92;;;10.02;;
22995;SDS011;11664;49.774;8.650;2022-11-20T05:17:39;25.63;;;10.65;;
22995;SDS011;11664;49.774;8.650;2022-11-20T05:20:05;21.67;;;10.55;;
22995;SDS011;11664;49.774;8.650;2022-11-20T05:22:31;22.30;;;11.55;;
22995;SDS011;11664;49.774;8.650;2022-11-20T05:24:56;26.30;;;11.75;;
22995;SDS011;11664;49.774;8.650;2022-11-20T05:27:22;26.50;;;14.40;;
22995;SDS011;11664;49.774;8.650;2022-11-20T05:29:48;26.70;;;17.63;;
22995;SDS011;11664;49.774;8.650;2022-11-20T05:32:13;26.38;;;16.20;;
22995;SDS011;11664;49.774;8.650;2022-11-20T05:34:39;21.13;;;11.10;;
22995;SDS011;11664;49.774;8.650;2022-11-20T05:37:04;27.30;;;11.85;;
22995;SDS011;11664;49.774;8.650;2022-11-20T05:39:29;26.63;;;11.00;;
22995;SDS011;11664;49.774;8.650;2022-11-20T05:41:55;27.00;;;11.80;;
22995;SDS011;11664;49.774;8.650;2022-11-20T05:44:39;20.27;;;10.52;;
22995;SDS011;11664;49.774;8.650;2022-11-20T05:47:05;22.05;;;10.25;;
22995;SDS011;11664;49.774;8.650;2022-11-20T05:49:31;22.30;;;11.20;;
22995;SDS011;11664;49.774;8.650;2022-11-20T05:51:57;24.08;;;11.32;;
22995;SDS011;11664;49.774;8.650;2022-11-20T05:54:22;23.33;;;12.13;;
22995;SDS011;11664;49.774;8.650;2022-11-20T05:56:48;31.70;;;11.75;;
22995;SDS011;11664;49.774;8.650;2022-11-20T05:59:14;25.73;;;12.50;;
22995;SDS011;11664;49.774;8.650;2022-11-20T06:01:39;21.55;;;11.02;;
22995;SDS011;11664;49.774;8.650;2022-11-20T06:04:04;26.33;;;10.75;;
22995;SDS011;11664;49.774;8.650;2022-11-20T06:06:30;23.67;;;11.45;;
22995;SDS011;11664;49.774;8.650;2022-11-20T06:08:55;25.80;;;12.13;;
22995;SDS011;11664;49.774;8.650;2022-11-20T06:11:23;23.98;;;11.05;;
22995;SDS011;11664;49.774;8.650;2022-11-20T06:13:49;29.30;;;11.23;;
22995;SDS011;11664;49.774;8.650;2022-11-20T06:16:16;24.42;;;11.02;;
22995;SDS011;11664;49.774;8.650;2022-11-20T06:18:43;30.48;;;10.88;;
22995;SDS011;11664;49.774;8.650;2022-11-20T06:21:14;23.13;;;11.48;;
22995;SDS011;11664;49.774;8.650;2022-11-20T06:23:44;25.75;;;14.70;;
22995;SDS011;11664;49.774;8.650;2022-11-20T06:26:14;33.40;;;28.27;;
22995;SDS011;11664;49.774;8.650;2022-11-20T06:28:42;26.10;;;12.88;;
22995;SDS011;11664;49.774;8.650;2022-11-20T06:31:09;19.10;;;10.98;;
22995;SDS011;11664;49.774;8.650;2022-11-20T06:33:36;25.52;;;12.02;;
22995;SDS011;11664;49.774;8.650;2022-11-20T06:36:02;24.10;;;16.02;;
22995;SDS011;11664;49.774;8.650;2022-11-20T06:38:28;26.17;;;10.70;;
22995;SDS011;11664;49.774;8.650;2022-11-20T06:40:54;26.08;;;11.10;;
22995;SDS011;11664;49.774;8.650;2022-11-20T06:43:21;26.17;;;11.00;;
22995;SDS011;11664;49.774;8.650;2022-11-20T06:45:50;20.67;;;11.43;;
22995;SDS011;11664;49.774;8.650;2022-11-20T06:48:25;18.20;;;10.55;;
22995;SDS011;11664;49.774;8.650;2022-11-20T06:50:52;20.15;;;9.57;;
22995;SDS011;11664;49.774;8.650;2022-11-20T06:53:17;21.83;;;10.27;;
22995;SDS011;11664;49.774;8.650;2022-11-20T06:55:44;21.73;;;11.70;;
22995;SDS011;11664;49.774;8.650;2022-11-20T06:58:11;16.15;;;9.30;;
22995;SDS011;11664;49.774;8.650;2022-11-20T07:00:37;18.17;;;8.63;;
22995;SDS011;11664;49.774;8.650;2022-11-20T07:03:03;16.58;;;8.23;;
22995;SDS011;11664;49.774;8.650;2022-11-20T07:05:29;17.00;;;9.05;;
22995;SDS011;11664;49.774;8.650;2022-11-20T07:07:57;19.50;;;9.20;;
22995;SDS011;11664;49.774;8.650;2022-11-20T07:10:24;18.90;;;11.45;;
22995;SDS011;11664;49.774;8.650;2022-11-20T07:12:50;14.85;;;10.07;;
22995;SDS011;11664;49.774;8.650;2022-11-20T07:15:17;18.23;;;8.77;;
22995;SDS011;11664;49.774;8.650;2022-11-20T07:17:43;17.55;;;9.73;;
22995;SDS011;11664;49.774;8.650;2022-11-20T07:20:09;18.70;;;8.77;;
22995;SDS011;11664;49.774;8.650;2022-11-20T07:22:35;22.30;;;9.05;;
22995;SDS011;11664;49.774;8.650;2022-11-20T07:25:00;21.90;;;10.20;;
22995;SDS011;11664;49.774;8.650;2022-11-20T07:27:26;21.25;;;9.88;;
22995;SDS011;11664;49.774;8.650;2022-11-20T07:29:52;16.05;;;8.98;;
22995;SDS011;11664;49.774;8.650;2022-11-20T07:32:18;20.45;;;10.15;;
22995;SDS011;11664;49.774;8.650;2022-11-20T07:34:43;18.83;;;9.48;;
22995;SDS011;11664;49.774;8.650;2022-11-20T07:37:09;23.15;;;9.65;;
22995;SDS011;11664;49.774;8.650;2022-11-20T07:39:35;25.00;;;10.85;;
22995;SDS011;11664;49.774;8.650;2022-11-20T07:42:00;20.08;;;8.93;;
22995;SDS011;11664;49.774;8.650;2022-11-20T07:44:26;19.13;;;9.95;;
22995;SDS011;11664;49.774;8.650;2022-11-20T07:46:51;20.73;;;11.05;;
22995;SDS011;11664;49.774;8.650;2022-11-20T07:49:17;26.02;;;11.85;;
22995;SDS011;11664;49.774;8.650;2022-11-20T07:51:42;23.55;;;11.05;;
22995;SDS011;11664;49.774;8.650;2022-11-20T07:54:08;25.90;;;11.05;;
22995;SDS011;11664;49.774;8.650;2022-11-20T07:56:33;22.05;;;12.38;;
22995;SDS011;11664;49.774;8.650;2022-11-20T07:58:59;30.58;;;12.13;;
22995;SDS011;11664;49.774;8.650;2022-11-20T08:01:24;19.50;;;10.27;;
22995;SDS011;11664;49.774;8.650;2022-11-20T08:03:50;24.52;;;11.02;;
22995;SDS011;11664;49.774;8.650;2022-11-20T08:06:15;21.10;;;9.82;;
22995;SDS011;11664;49.774;8.650;2022-11-20T08:08:42;19.67;;;9.07;;
22995;SDS011;11664;49.774;8.650;2022-11-20T08:11:08;24.08;;;10.23;;
22995;SDS011;11664;49.774;8.650;2022-11-20T08:13:52;22.70;;;10.77;;
22995;SDS011;11664;49.774;8.650;2022-11-20T08:16:36;19.77;;;9.63;;
22995;SDS011;11664;49.774;8.650;2022-11-20T08:19:01;16.27;;;9.88;;
22995;SDS011;11664;49.774;8.650;2022-11-20T08:21:27;20.80;;;11.45;;
22995;SDS011;11664;49.774;8.650;2022-11-20T08:23:52;25.25;;;10.70;;
22995;SDS011;11664;49.774;8.650;2022-11-20T08:26:18;21.52;;;9.52;;
22995;SDS011;11664;49.774;8.650;2022-11-20T08:28:45;29.13;;;9.05;;
22995;SDS011;11664;49.774;8.650;2022-11-20T08:31:11;22.38;;;9.90;;
22995;SDS011;11664;49.774;8.650;2022-11-20T08:33:37;22.25;;;10.48;;
22995;SDS011;11664;49.774;8.650;2022-11-20T08:36:03;19.33;;;8.32;;
22995;SDS011;11664;49.774;8.650;2022-11-20T08:38:29;20.98;;;10.23;;
22995;SDS011;11664;49.774;8.650;2022-11-20T08:40:56;21.17;;;10.02;;
22995;SDS011;11664;49.774;8.650;2022-11-20T08:43:44;32.03;;;12.77;;
22995;SDS011;11664;49.774;8.650;2022-11-20T08:46:10;25.30;;;9.70;;
22995;SDS011;11664;49.774;8.650;2022-11-20T08:48:35;21.48;;;10.45;;
22995;SDS011;11664;49.774;8.650;2022-11-20T08:51:01;23.00;;;11.73;;
22995;SDS011;11664;49.774;8.650;2022-11-20T08:53:27;21.02;;;9.90;;
22995;SDS011;11664;49.774;8.650;2022-11-20T08:55:52;24.60;;;12.52;;
22995;SDS011;11664;49.774;8.650;2022-11-20T08:58:18;22.58;;;11.82;;
22995;SDS011;11664;49.774;8.650;2022-11-20T09:00:43;20.17;;;10.15;;
22995;SDS011;11664;49.774;8.650;2022-11-20T09:03:10;24.63;;;10.55;;
22995;SDS011;11664;49.774;8.650;2022-11-20T09:05:35;24.00;;;10.45;;
22995;SDS011;11664;49.774;8.650;2022-11-20T09:08:01;25.77;;;16.05;;
22995;SDS011;11664;49.774;8.650;2022-11-20T09:10:27;22.42;;;12.35;;
22995;SDS011;11664;49.774;8.650;2022-11-20T09:12:53;23.90;;;12.43;;
22995;SDS011;11664;49.774;8.650;2022-11-20T09:15:20;17.70;;;10.80;;
22995;SDS011;11664;49.774;8.650;2022-11-20T09:20:20;21.20;;;11.38;;
22995;SDS011;11664;49.774;8.650;2022-11-20T09:22:46;22.70;;;12.10;;
22995;SDS011;11664;49.774;8.650;2022-11-20T09:25:12;19.83;;;11.25;;
22995;SDS011;11664;49.774;8.650;2022-11-20T09:27:37;20.35;;;10.32;;
22995;SDS011;11664;49.774;8.650;2022-11-20T09:30:03;15.07;;;10.63;;
22995;SDS011;11664;49.774;8.650;2022-11-20T09:32:29;17.30;;;11.70;;
22995;SDS011;11664;49.774;8.650;2022-11-20T09:34:54;16.65;;;9.75;;
22995;SDS011;11664;49.774;8.650;2022-11-20T09:37:20;12.73;;;8.02;;
22995;SDS011;11664;49.774;8.650;2022-11-20T09:39:46;15.70;;;8.40;;
22995;SDS011;11664;49.774;8.650;2022-11-20T09:44:46;15.40;;;9.05;;
22995;SDS011;11664;49.774;8.650;2022-11-20T09:52:47;14.50;;;9.40;;
22995;SDS011;11664;49.774;8.650;2022-11-20T09:55:33;18.00;;;9.15;;
22995;SDS011;11664;49.774;8.650;2022-11-20T09:58:00;19.88;;;10.32;;
22995;SDS011;11664;49.774;8.650;2022-11-20T10:00:26;15.07;;;11.63;;
22995;SDS011;11664;49.774;8.650;2022-11-20T10:03:11;20.88;;;14.13;;
22995;SDS011;11664;49.774;8.650;2022-11-20T10:05:43;19.58;;;12.18;;
22995;SDS011;11664;49.774;8.650;2022-11-20T10:08:19;20.70;;;13.13;;
22995;SDS011;11664;49.774;8.650;2022-11-20T10:10:53;24.00;;;12.27;;
22995;SDS011;11664;49.774;8.650;2022-11-20T10:19:09;23.08;;;11.80;;
22995;SDS011;11664;49.774;8.650;2022-11-20T10:29:38;25.58;;;14.98;;
22995;SDS011;11664;49.774;8.650;2022-11-20T10:32:10;24.73;;;11.27;;
22995;SDS011;11664;49.774;8.650;2022-11-20T10:37:25;22.23;;;10.88;;
22995;SDS011;11664;49.774;8.650;2022-11-20T10:43:03;17.83;;;10.15;;
22995;SDS011;11664;49.774;8.650;2022-11-20T10:47:54;22.33;;;11.18;;
22995;SDS011;11664;49.774;8.650;2022-11-20T10:50:32;19.02;;;8.95;;
22995;SDS011;11664;49.774;8.650;2022-11-20T10:53:13;21.40;;;10.68;;
22995;SDS011;11664;49.774;8.650;2022-11-20T10:55:54;20.90;;;10.05;;
22995;SDS011;11664;49.774;8.650;2022-11-20T11:01:06;19.70;;;9.73;;
22995;SDS011;11664;49.774;8.650;2022-11-20T11:03:43;23.83;;;12.23;;
22995;SDS011;11664;49.774;8.650;2022-11-20T11:08:51;22.48;;;10.43;;
22995;SDS011;11664;49.774;8.650;2022-11-20T11:16:53;23.90;;;11.50;;
22995;SDS011;11664;49.774;8.650;2022-11-20T11:19:20;25.63;;;9.85;;
22995;SDS011;11664;49.774;8.650;2022-11-20T11:21:46;20.23;;;10.50;;
22995;SDS011;11664;49.774;8.650;2022-11-20T11:24:27;22.00;;;10.32;;
22995;SDS011;11664;49.774;8.650;2022-11-20T11:26:58;25.30;;;11.80;;
22995;SDS011;11664;49.774;8.650;2022-11-20T11:29:29;24.40;;;11.98;;
22995;SDS011;11664;49.774;8.650;2022-11-20T11:32:06;29.48;;;15.57;;
22995;SDS011;11664;49.774;8.650;2022-11-20T11:34:33;28.40;;;14.63;;
22995;SDS011;11664;49.774;8.650;2022-11-20T11:36:59;17.45;;;9.73;;
22995;SDS011;11664;49.774;8.650;2022-11-20T11:39:27;23.13;;;11.52;;
22995;SDS011;11664;49.774;8.650;2022-11-20T11:41:55;22.98;;;10.30;;
22995;SDS011;11664;49.774;8.650;2022-11-20T11:44:23;19.85;;;10.25;;
22995;SDS011;11664;49.774;8.650;2022-11-20T11:47:18;18.35;;;8.90;;
22995;SDS011;11664;49.774;8.650;2022-11-20T11:49:48;15.82;;;10.13;;
22995;SDS011;11664;49.774;8.650;2022-11-20T11:54:49;18.55;;;10.50;;
22995;SDS011;11664;49.774;8.650;2022-11-20T12:07:47;19.10;;;10.80;;
22995;SDS011;11664;49.774;8.650;2022-11-20T12:13:50;23.05;;;11.90;;
22995;SDS011;11664;49.774;8.650;2022-11-20T12:15:58;20.85;;;11.20;;
22995;SDS011;11664;49.774;8.650;2022-11-20T12:18:26;27.90;;;14.43;;
22995;SDS011;11664;49.774;8.650;2022-11-20T12:21:00;24.85;;;14.30;;
22995;SDS011;11664;49.774;8.650;2022-11-20T12:35:48;21.25;;;14.13;;
22995;SDS011;11664;49.774;8.650;2022-11-20T12:44:06;18.65;;;11.38;;
22995;SDS011;11664;49.774;8.650;2022-11-20T12:47:04;21.25;;;15.20;;
22995;SDS011;11664;49.774;8.650;2022-11-20T12:49:55;23.52;;;13.50;;
22995;SDS011;11664;49.774;8.650;2022-11-20T12:55:09;21.65;;;16.48;;
22995;SDS011;11664;49.774;8.650;2022-11-20T12:58:04;21.42;;;15.80;;
22995;SDS011;11664;49.774;8.650;2022-11-20T13:00:37;28.15;;;15.23;;
22995;SDS011;11664;49.774;8.650;2022-11-20T13:08:25;24.20;;;13.75;;
22995;SDS011;11664;49.774;8.650;2022-11-20T13:16:31;20.45;;;12.65;;
22995;SDS011;11664;49.774;8.650;2022-11-20T13:19:09;13.98;;;11.07;;
22995;SDS011;11664;49.774;8.650;2022-11-20T13:21:39;17.88;;;11.82;;
22995;SDS011;11664;49.774;8.650;2022-11-20T13:29:32;11.05;;;9.90;;
22995;SDS011;11664;49.774;8.650;2022-11-20T13:34:55;14.88;;;12.85;;
22995;SDS011;11664;49.774;8.650;2022-11-20T13:37:32;15.80;;;11.10;;
22995;SDS011;11664;49.774;8.650;2022-11-20T13:42:35;11.60;;;10.50;;
22995;SDS011;11664;49.774;8.650;2022-11-20T13:45:28;16.63;;;15.33;;
22995;SDS011;11664;49.774;8.650;2022-11-20T13:47:55;19.35;;;17.52;;
22995;SDS011;11664;49.774;8.650;2022-11-20T13:53:27;10.90;;;9.55;;
22995;SDS011;11664;49.774;8.650;2022-11-20T13:56:05;11.88;;;9.05;;
22995;SDS011;11664;49.774;8.650;2022-11-20T13:58:52;9.35;;;8.40;;
22995;SDS011;11664;49.774;8.650;2022-11-20T14:01:30;14.43;;;9.57;;
22995;SDS011;11664;49.774;8.650;2022-11-20T14:03:57;13.13;;;11.50;;
22995;SDS011;11664;49.774;8.650;2022-11-20T14:08:57;11.73;;;10.48;;
22995;SDS011;11664;49.774;8.650;2022-11-20T14:11:24;11.65;;;9.43;;
22995;SDS011;11664;49.774;8.650;2022-11-20T14:16:47;9.50;;;8.65;;
22995;SDS011;11664;49.774;8.650;2022-11-20T14:21:46;9.38;;;8.48;;
22995;SDS011;11664;49.774;8.650;2022-11-20T14:24:20;9.80;;;8.90;;
22995;SDS011;11664;49.774;8.650;2022-11-20T14:26:47;11.23;;;10.13;;
22995;SDS011;11664;49.774;8.650;2022-11-20T14:29:15;10.02;;;9.10;;
22995;SDS011;11664;49.774;8.650;2022-11-20T14:31:46;9.40;;;8.00;;
22995;SDS011;11664;49.774;8.650;2022-11-20T14:34:17;10.50;;;9.27;;
22995;SDS011;11664;49.774;8.650;2022-11-20T14:36:46;9.02;;;8.23;;
22995;SDS011;11664;49.774;8.650;2022-11-20T14:39:12;9.77;;;8.88;;
22995;SDS011;11664;49.774;8.650;2022-11-20T14:41:52;11.75;;;9.70;;
22995;SDS011;11664;49.774;8.650;2022-11-20T14:44:19;10.27;;;9.27;;
22995;SDS011;11664;49.774;8.650;2022-11-20T14:46:48;9.75;;;8.70;;
22995;SDS011;11664;49.774;8.650;2022-11-20T14:49:15;10.57;;;9.23;;
22995;SDS011;11664;49.774;8.650;2022-11-20T14:51:40;9.60;;;7.97;;
22995;SDS011;11664;49.774;8.650;2022-11-20T14:56:39;12.63;;;11.70;;
22995;SDS011;11664;49.774;8.650;2022-11-20T14:59:05;11.63;;;10.35;;
22995;SDS011;11664;49.774;8.650;2022-11-20T15:01:32;14.88;;;10.23;;
22995;SDS011;11664;49.774;8.650;2022-11-20T15:04:04;11.38;;;10.30;;
22995;SDS011;11664;49.774;8.650;2022-11-20T15:06:34;11.63;;;10.73;;
22995;SDS011;11664;49.774;8.650;2022-11-20T15:09:01;12.65;;;11.55;;
22995;SDS011;11664;49.774;8.650;2022-11-20T15:11:29;10.55;;;9.40;;
22995;SDS011;11664;49.774;8.650;2022-11-20T15:13:57;10.95;;;9.98;;
22995;SDS011;11664;49.774;8.650;2022-11-20T15:16:27;11.45;;;8.45;;
22995;SDS011;11664;49.774;8.650;2022-11-20T15:18:53;8.18;;;7.47;;
22995;SDS011;11664;49.774;8.650;2022-11-20T15:21:19;6.55;;;5.88;;
22995;SDS011;11664;49.774;8.650;2022-11-20T15:23:48;13.00;;;10.70;;
22995;SDS011;11664;49.774;8.650;2022-11-20T15:26:15;7.30;;;6.03;;
22995;SDS011;11664;49.774;8.650;2022-11-20T15:28:50;9.68;;;8.50;;
22995;SDS011;11664;49.774;8.650;2022-11-20T15:31:19;9.30;;;8.30;;
22995;SDS011;11664;49.774;8.650;2022-11-20T15:33:46;6.78;;;6.18;;
22995;SDS011;11664;49.774;8.650;2022-11-20T15:36:12;5.20;;;4.57;;
22995;SDS011;11664;49.774;8.650;2022-11-20T15:38:38;6.88;;;6.18;;
22995;SDS011;11664;49.774;8.650;2022-11-20T15:41:03;5.03;;;4.78;;
22995;SDS011;11664;49.774;8.650;2022-11-20T15:43:29;6.28;;;5.68;;
22995;SDS011;11664;49.774;8.650;2022-11-20T15:45:56;6.38;;;5.80;;
22995;SDS011;11664;49.774;8.650;2022-11-20T15:49:08;7.95;;;7.35;;
22995;SDS011;11664;49.774;8.650;2022-11-20T15:51:35;6.65;;;6.10;;
22995;SDS011;11664;49.774;8.650;2022-11-20T15:54:16;6.22;;;5.72;;
22995;SDS011;11664;49.774;8.650;2022-11-20T15:56:44;6.45;;;4.43;;
22995;SDS011;11664;49.774;8.650;2022-11-20T15:59:10;4.72;;;4.28;;
22995;SDS011;11664;49.774;8.650;2022-11-20T16:01:37;6.43;;;5.93;;
22995;SDS011;11664;49.774;8.650;2022-11-20T16:04:02;6.57;;;6.07;;
22995;SDS011;11664;49.774;8.650;2022-11-20T16:06:30;10.95;;;9.85;;
22995;SDS011;11664;49.774;8.650;2022-11-20T16:08:55;7.63;;;7.13;;
22995;SDS011;11664;49.774;8.650;2022-11-20T16:11:21;13.23;;;9.18;;
22995;SDS011;11664;49.774;8.650;2022-11-20T16:13:46;10.13;;;9.13;;
22995;SDS011;11664;49.774;8.650;2022-11-20T16:16:32;7.82;;;7.22;;
22995;SDS011;11664;49.774;8.650;2022-11-20T16:18:59;6.20;;;5.75;;
22995;SDS011;11664;49.774;8.650;2022-11-20T16:21:25;13.35;;;7.50;;
22995;SDS011;11664;49.774;8.650;2022-11-20T16:26:27;7.65;;;6.97;;
22995;SDS011;11664;49.774;8.650;2022-11-20T16:28:53;9.18;;;8.27;;
22995;SDS011;11664;49.774;8.650;2022-11-20T16:31:19;11.48;;;10.60;;
22995;SDS011;11664;49.774;8.650;2022-11-20T16:33:49;11.70;;;10.80;;
22995;SDS011;11664;49.774;8.650;2022-11-20T16:36:15;11.38;;;10.77;;
22995;SDS011;11664;49.774;8.650;2022-11-20T16:38:42;11.60;;;10.80;;
22995;SDS011;11664;49.774;8.650;2022-11-20T16:41:07;9.15;;;8.43;;
22995;SDS011;11664;49.774;8.650;2022-11-20T16:43:52;8.45;;;7.85;;
22995;SDS011;11664;49.774;8.650;2022-11-20T16:46:23;7.90;;;7.47;;